Time;durP1;ratioP1;P1;durP2;ratioP2;P2;SDS_P1;SDS_P2;PMS_P1;PMS_P2;Temp;Humidity;BMP_temperature;BMP_pressure;BME280_temperature;BME280_humidity;BME280_pressure;Samples;Min_cycle;Max_cycle;Signal;HPM_P1;HPM_P2
2023/11/25 00:04:21;;;;;;;8.38;5.93;;;;;;;;;;10255517;28;20023;-66
2023/11/25 00:09:24;;;;;;;8.82;6.18;;;;;;;;;;10251936;28;20032;-65
2023/11/25 00:14:24;;;;;;;10.07;6.32;;;;;;;;;;10245192;29;20372;-66
2023/11/25 00:19:25;;;;;;;6.45;5.78;;;;;;;;;;10248646;29;20031;-65
2023/11/25 00:24:25;;;;;;;8.32;6.47;;;;;;;;;;10248181;29;20341;-66
2023/11/25 00:29:26;;;;;;;11.90;6.20;;;;;;;;;;10247519;28;20038;-65
2023/11/25 00:34:27;;;;;;;8.07;5.70;;;;;;;;;;10247647;28;20055;-66
2023/11/25 00:39:29;;;;;;;8.90;5.55;;;;;;;;;;10246023;29;20135;-66
2023/11/25 00:44:29;;;;;;;7.63;5.60;;;;;;;;;;10235242;28;20031;-66
2023/11/25 00:49:32;;;;;;;8.35;5.90;;;;;;;;;;10247206;28;20031;-68
2023/11/25 00:54:33;;;;;;;7.10;4.97;;;;;;;;;;10246398;28;20513;-67
2023/11/25 00:59:34;;;;;;;7.05;5.28;;;;;;;;;;10246801;28;20031;-66
2023/11/25 01:04:34;;;;;;;6.72;5.28;;;;;;;;;;10247335;29;20036;-64
2023/11/25 01:09:35;;;;;;;6.88;5.85;;;;;;;;;;10245431;28;20483;-63
2023/11/25 01:14:36;;;;;;;8.75;5.93;;;;;;;;;;10245875;29;20030;-63
2023/11/25 01:19:37;;;;;;;7.35;5.20;;;;;;;;;;10246370;29;20274;-66
2023/11/25 01:24:38;;;;;;;8.45;5.53;;;;;;;;;;10246257;28;20031;-66
2023/11/25 01:29:38;;;;;;;8.88;5.32;;;;;;;;;;10245529;28;20431;-65
2023/11/25 01:34:39;;;;;;;7.05;5.03;;;;;;;;;;10245527;29;20078;-65
2023/11/25 01:39:40;;;;;;;6.75;5.35;;;;;;;;;;10245159;28;20535;-65
2023/11/25 01:44:40;;;;;;;6.10;4.63;;;;;;;;;;10244894;28;20035;-65
2023/11/25 01:49:42;;;;;;;7.53;5.00;;;;;;;;;;10244371;28;20031;-66
2023/11/25 01:54:42;;;;;;;5.80;5.20;;;;;;;;;;10244306;28;20094;-65
2023/11/25 01:59:47;;;;;;;7.20;4.75;;;;;;;;;;10244907;29;20415;-66
2023/11/25 02:04:48;;;;;;;5.45;4.72;;;;;;;;;;10243852;28;20255;-65
2023/11/25 02:09:49;;;;;;;7.40;5.03;;;;;;;;;;10242608;28;20210;-66
2023/11/25 02:14:49;;;;;;;7.53;5.13;;;;;;;;;;10238214;28;20074;-62
2023/11/25 02:19:52;;;;;;;6.32;5.05;;;;;;;;;;10239407;28;20039;-66
2023/11/25 02:24:52;;;;;;;6.65;4.78;;;;;;;;;;10243648;28;20458;-65
2023/11/25 02:29:53;;;;;;;6.38;4.65;;;;;;;;;;10244130;28;20038;-66
2023/11/25 02:34:54;;;;;;;6.55;4.70;;;;;;;;;;10244136;28;20023;-65
2023/11/25 02:39:55;;;;;;;6.07;4.47;;;;;;;;;;10241534;28;20035;-65
2023/11/25 02:44:56;;;;;;;6.55;4.78;;;;;;;;;;10236800;29;20407;-64
2023/11/25 02:49:57;;;;;;;5.45;4.43;;;;;;;;;;10242880;28;20379;-64
2023/11/25 02:54:57;;;;;;;7.18;4.78;;;;;;;;;;10243408;28;20047;-64
2023/11/25 03:00:10;;;;;;;5.65;4.57;;;;;;;;;;10244234;29;20035;-64
2023/11/25 03:05:13;;;;;;;6.43;4.72;;;;;;;;;;10243509;28;20031;-66
2023/11/25 03:10:16;;;;;;;6.40;4.47;;;;;;;;;;10243397;29;20457;-65
2023/11/25 03:15:17;;;;;;;5.00;3.92;;;;;;;;;;10241339;28;20090;-66
2023/11/25 03:20:18;;;;;;;5.18;4.30;;;;;;;;;;10251540;28;20031;-64
2023/11/25 03:25:18;;;;;;;6.15;3.70;;;;;;;;;;10249577;29;20039;-65
2023/11/25 03:30:19;;;;;;;4.75;4.20;;;;;;;;;;10246638;28;20039;-65
2023/11/25 03:35:21;;;;;;;4.63;4.22;;;;;;;;;;10237370;29;20491;-64
2023/11/25 03:40:22;;;;;;;4.90;4.07;;;;;;;;;;10250405;28;20107;-63
2023/11/25 03:45:22;;;;;;;4.78;3.95;;;;;;;;;;10248751;28;20110;-63
2023/11/25 03:50:23;;;;;;;4.88;3.95;;;;;;;;;;10248560;28;20058;-64
2023/11/25 03:55:23;;;;;;;4.70;3.85;;;;;;;;;;10248738;28;20055;-64
2023/11/25 04:00:24;;;;;;;4.95;3.90;;;;;;;;;;10242026;29;20028;-66
2023/11/25 04:05:24;;;;;;;4.93;3.80;;;;;;;;;;10245596;28;20035;-66
2023/11/25 04:10:27;;;;;;;7.32;3.40;;;;;;;;;;10248821;29;20028;-63
2023/11/25 04:15:27;;;;;;;6.45;3.67;;;;;;;;;;10244927;29;20030;-62
2023/11/25 04:20:28;;;;;;;5.60;3.55;;;;;;;;;;10243112;29;20246;-65
2023/11/25 04:25:29;;;;;;;5.03;3.33;;;;;;;;;;10247866;29;20035;-65
2023/11/25 04:30:29;;;;;;;6.00;3.65;;;;;;;;;;10246247;28;20394;-65
2023/11/25 04:35:32;;;;;;;3.45;3.00;;;;;;;;;;10248532;28;20058;-69
2023/11/25 04:40:33;;;;;;;5.05;3.42;;;;;;;;;;10247645;29;20049;-66
2023/11/25 04:45:34;;;;;;;3.70;3.00;;;;;;;;;;10246327;29;20502;-66
2023/11/25 04:50:35;;;;;;;4.18;3.40;;;;;;;;;;10246248;28;20391;-66
2023/11/25 04:55:36;;;;;;;3.53;3.22;;;;;;;;;;10247354;28;20038;-66
2023/11/25 05:00:36;;;;;;;7.63;3.50;;;;;;;;;;10237222;29;20035;-65
2023/11/25 05:05:37;;;;;;;3.20;2.90;;;;;;;;;;10237658;29;20023;-65
2023/11/25 05:10:37;;;;;;;3.58;2.90;;;;;;;;;;10246074;28;20098;-69
2023/11/25 05:15:38;;;;;;;4.50;3.25;;;;;;;;;;10245236;28;20046;-70
2023/11/25 05:20:38;;;;;;;3.00;2.70;;;;;;;;;;10246407;28;20035;-70
2023/11/25 05:25:39;;;;;;;3.22;2.92;;;;;;;;;;10245345;29;20043;-71
2023/11/25 05:30:41;;;;;;;3.00;2.70;;;;;;;;;;10245405;28;20117;-71
2023/11/25 05:35:42;;;;;;;3.00;2.50;;;;;;;;;;10242146;29;20065;-64
2023/11/25 05:40:42;;;;;;;3.63;2.83;;;;;;;;;;10245099;28;20027;-67
2023/11/25 05:45:43;;;;;;;3.70;2.50;;;;;;;;;;10244986;29;20042;-64
2023/11/25 05:50:44;;;;;;;3.20;2.80;;;;;;;;;;10240910;29;20465;-68
2023/11/25 05:55:44;;;;;;;2.97;2.72;;;;;;;;;;10244204;28;20054;-64
2023/11/25 06:00:45;;;;;;;4.50;2.88;;;;;;;;;;10244993;29;20027;-65
2023/11/25 06:05:46;;;;;;;3.00;2.55;;;;;;;;;;10243805;28;20136;-64
2023/11/25 06:10:50;;;;;;;3.95;2.47;;;;;;;;;;10245070;29;20027;-64
2023/11/25 06:15:51;;;;;;;2.85;2.65;;;;;;;;;;10244994;28;20527;-64
2023/11/25 06:20:52;;;;;;;3.38;2.60;;;;;;;;;;10239684;28;20443;-63
2023/11/25 06:25:52;;;;;;;4.60;2.58;;;;;;;;;;10243759;29;20036;-63
2023/11/25 06:30:53;;;;;;;3.40;2.60;;;;;;;;;;10243980;29;20053;-64
2023/11/25 06:35:55;;;;;;;2.67;2.45;;;;;;;;;;10244037;28;20083;-62
2023/11/25 06:40:55;;;;;;;3.28;2.58;;;;;;;;;;10235807;29;20373;-61
2023/11/25 06:45:57;;;;;;;3.10;2.42;;;;;;;;;;10241690;29;20031;-61
2023/11/25 06:50:59;;;;;;;2.38;2.17;;;;;;;;;;10243307;28;20066;-62
2023/11/25 06:55:59;;;;;;;2.92;1.80;;;;;;;;;;10249988;29;20102;-61
2023/11/25 07:01:04;;;;;;;2.30;2.10;;;;;;;;;;10251124;29;20034;-62
2023/11/25 07:06:05;;;;;;;2.20;1.92;;;;;;;;;;10251731;29;20035;-62
2023/11/25 07:11:10;;;;;;;2.47;2.28;;;;;;;;;;10246063;28;20035;-64
2023/11/25 07:16:13;;;;;;;3.13;2.30;;;;;;;;;;10250804;28;20114;-64
2023/11/25 07:21:14;;;;;;;2.40;2.20;;;;;;;;;;10240400;28;20035;-64
2023/11/25 07:26:15;;;;;;;2.70;2.15;;;;;;;;;;10250438;29;20506;-64
2023/11/25 07:31:15;;;;;;;2.13;1.92;;;;;;;;;;10249151;28;20035;-64
2023/11/25 07:36:16;;;;;;;1.92;1.67;;;;;;;;;;10249979;28;20035;-63
2023/11/25 07:41:16;;;;;;;1.85;1.75;;;;;;;;;;10248765;29;20055;-63
2023/11/25 07:46:17;;;;;;;1.92;1.67;;;;;;;;;;10248894;28;20035;-63
2023/11/25 07:51:18;;;;;;;2.25;1.85;;;;;;;;;;10245547;29;20036;-62
2023/11/25 07:56:18;;;;;;;2.53;2.00;;;;;;;;;;10245797;28;20046;-62
2023/11/25 08:01:19;;;;;;;2.45;2.20;;;;;;;;;;10250556;28;20027;-65
2023/11/25 08:06:25;;;;;;;1.70;1.60;;;;;;;;;;10249204;28;20031;-65
2023/11/25 08:11:27;;;;;;;2.15;1.92;;;;;;;;;;10246591;28;20477;-66
2023/11/25 08:16:28;;;;;;;2.00;1.80;;;;;;;;;;10248530;28;20031;-66
2023/11/25 08:21:29;;;;;;;2.08;1.88;;;;;;;;;;10246734;28;20043;-65
2023/11/25 08:26:29;;;;;;;1.85;1.75;;;;;;;;;;10248030;29;20046;-65
2023/11/25 08:31:30;;;;;;;2.60;1.75;;;;;;;;;;10245785;28;20043;-67
2023/11/25 08:36:31;;;;;;;2.17;1.70;;;;;;;;;;10247045;29;20082;-64
2023/11/25 08:41:31;;;;;;;4.97;1.75;;;;;;;;;;10248457;28;20040;-65
2023/11/25 08:46:35;;;;;;;4.43;1.98;;;;;;;;;;10247011;28;20035;-64
2023/11/25 08:51:36;;;;;;;2.15;1.92;;;;;;;;;;10248141;28;20051;-65
2023/11/25 08:56:45;;;;;;;2.13;1.63;;;;;;;;;;10256649;28;20035;-64
2023/11/25 09:01:47;;;;;;;2.60;1.63;;;;;;;;;;10244764;29;20081;-67
2023/11/25 09:06:49;;;;;;;2.50;1.50;;;;;;;;;;10245937;29;20063;-66
2023/11/25 09:11:49;;;;;;;1.83;1.58;;;;;;;;;;10250557;28;20046;-66
2023/11/25 09:16:50;;;;;;;1.98;1.73;;;;;;;;;;10248180;28;20062;-66
2023/11/25 09:21:51;;;;;;;3.08;1.40;;;;;;;;;;10252788;28;20045;-67
2023/11/25 09:26:54;;;;;;;1.50;1.40;;;;;;;;;;10252466;28;20027;-66
2023/11/25 09:31:55;;;;;;;1.30;1.20;;;;;;;;;;10253663;28;20035;-65
2023/11/25 09:36:55;;;;;;;2.58;1.52;;;;;;;;;;10249347;28;20522;-65
2023/11/25 09:41:56;;;;;;;1.75;1.25;;;;;;;;;;10260400;28;20467;-65
2023/11/25 09:46:56;;;;;;;4.20;1.45;;;;;;;;;;10234882;28;20028;-63
2023/11/25 09:52:04;;;;;;;19.95;2.25;;;;;;;;;;10245570;28;20051;-67
2023/11/25 09:57:06;;;;;;;20.05;3.00;;;;;;;;;;10244100;28;20039;-64
2023/11/25 10:02:09;;;;;;;8.85;1.75;;;;;;;;;;10261590;28;20363;-61
2023/11/25 10:07:09;;;;;;;15.27;1.75;;;;;;;;;;10243569;28;20042;-59
2023/11/25 10:12:10;;;;;;;9.90;1.52;;;;;;;;;;10244676;28;20082;-61
2023/11/25 10:17:23;;;;;;;14.25;1.85;;;;;;;;;;10251021;28;20031;-62
2023/11/25 10:22:25;;;;;;;6.45;1.42;;;;;;;;;;10253894;28;20434;-58
2023/11/25 10:27:26;;;;;;;10.10;1.65;;;;;;;;;;10232832;28;20031;-61
2023/11/25 10:32:27;;;;;;;9.07;1.35;;;;;;;;;;10236372;28;20035;-61
2023/11/25 10:37:31;;;;;;;11.15;1.33;;;;;;;;;;10244522;28;20498;-61
2023/11/25 10:42:32;;;;;;;5.05;1.15;;;;;;;;;;10243539;28;20038;-63
2023/11/25 10:47:33;;;;;;;10.05;1.25;;;;;;;;;;10237726;28;20055;-62
2023/11/25 10:52:38;;;;;;;3.58;1.52;;;;;;;;;;10242793;28;20050;-62
2023/11/25 10:57:40;;;;;;;3.75;1.35;;;;;;;;;;10241690;28;20070;-61
2023/11/25 11:02:50;;;;;;;4.40;1.30;;;;;;;;;;10245399;28;20039;-62
2023/11/25 11:08:02;;;;;;;6.57;1.10;;;;;;;;;;10229851;28;20666;-59
2023/11/25 11:13:04;;;;;;;3.10;1.17;;;;;;;;;;10239030;28;20059;-59
2023/11/25 11:18:30;;;;;;;4.20;1.10;;;;;;;;;;10233591;28;20106;-60
2023/11/25 11:23:36;;;;;;;2.55;1.00;;;;;;;;;;10234506;28;20705;-59
2023/11/25 11:29:06;;;;;;;4.63;1.00;;;;;;;;;;10220520;28;20378;-59
2023/11/25 11:34:07;;;;;;;2.13;1.00;;;;;;;;;;10223587;28;20050;-62
2023/11/25 11:39:11;;;;;;;5.20;0.93;;;;;;;;;;10250894;28;20241;-62
2023/11/25 11:44:12;;;;;;;5.50;1.25;;;;;;;;;;10242612;28;20046;-62
2023/11/25 11:49:12;;;;;;;7.25;0.90;;;;;;;;;;10241647;28;20034;-61
2023/11/25 11:54:19;;;;;;;1.98;0.70;;;;;;;;;;10256806;23;20035;-61
2023/11/25 11:59:20;;;;;;;1.38;0.88;;;;;;;;;;10236976;28;20034;-62
2023/11/25 12:04:21;;;;;;;2.10;1.15;;;;;;;;;;10245608;28;20039;-61
2023/11/25 12:09:22;;;;;;;5.97;1.20;;;;;;;;;;10239421;28;20035;-61
2023/11/25 12:14:23;;;;;;;1.20;0.70;;;;;;;;;;10244758;29;20044;-62
2023/11/25 12:19:24;;;;;;;2.53;1.10;;;;;;;;;;10245392;28;20027;-61
2023/11/25 12:24:25;;;;;;;0.70;0.70;;;;;;;;;;10248854;28;20054;-58
2023/11/25 12:29:25;;;;;;;2.28;0.70;;;;;;;;;;10248832;28;20565;-61
2023/11/25 12:34:29;;;;;;;2.75;0.60;;;;;;;;;;10241458;28;20210;-61
2023/11/25 12:39:30;;;;;;;5.97;1.02;;;;;;;;;;10231335;28;20098;-62
2023/11/25 12:44:50;;;;;;;1.65;0.93;;;;;;;;;;10243982;28;20035;-59
2023/11/25 12:50:05;;;;;;;2.38;1.08;;;;;;;;;;10244447;28;20054;-60
2023/11/25 12:55:07;;;;;;;1.88;1.00;;;;;;;;;;10245668;28;20046;-61
2023/11/25 13:00:10;;;;;;;3.92;1.10;;;;;;;;;;10245464;29;20086;-61
2023/11/25 13:05:23;;;;;;;1.08;0.77;;;;;;;;;;10245111;28;20510;-61
2023/11/25 13:10:24;;;;;;;3.47;0.90;;;;;;;;;;10244018;28;20039;-61
2023/11/25 13:15:25;;;;;;;4.00;1.05;;;;;;;;;;10242369;28;20038;-61
2023/11/25 13:20:26;;;;;;;1.50;0.90;;;;;;;;;;10235559;28;20125;-61
2023/11/25 13:25:27;;;;;;;1.88;1.00;;;;;;;;;;10225495;29;20186;-58
2023/11/25 13:30:28;;;;;;;2.00;0.90;;;;;;;;;;10245642;28;20266;-60
2023/11/25 13:35:31;;;;;;;4.85;1.10;;;;;;;;;;10241091;28;20262;-60
2023/11/25 13:40:37;;;;;;;3.88;1.00;;;;;;;;;;10243991;28;20038;-59
2023/11/25 13:45:38;;;;;;;2.42;0.75;;;;;;;;;;10239413;28;20085;-61
2023/11/25 13:50:38;;;;;;;3.13;1.08;;;;;;;;;;10229776;29;20031;-61
2023/11/25 13:55:44;;;;;;;5.03;1.08;;;;;;;;;;10229241;29;20042;-62
2023/11/25 14:00:45;;;;;;;1.90;1.10;;;;;;;;;;10235802;28;20031;-61
2023/11/25 14:05:46;;;;;;;6.13;1.27;;;;;;;;;;10239563;29;20027;-61
2023/11/25 14:10:47;;;;;;;3.22;1.05;;;;;;;;;;10228815;29;20039;-61
2023/11/25 14:15:48;;;;;;;2.28;1.02;;;;;;;;;;10239418;28;20406;-60
2023/11/25 14:20:48;;;;;;;2.50;1.10;;;;;;;;;;10232918;28;20035;-61
2023/11/25 14:25:49;;;;;;;0.77;0.77;;;;;;;;;;10237555;29;20031;-61
2023/11/25 14:30:49;;;;;;;2.55;0.95;;;;;;;;;;10244504;28;20038;-60
2023/11/25 14:35:50;;;;;;;1.65;0.90;;;;;;;;;;10243748;28;20049;-60
2023/11/25 14:40:51;;;;;;;2.70;0.98;;;;;;;;;;10250741;28;20561;-62
2023/11/25 14:45:51;;;;;;;1.17;0.98;;;;;;;;;;10238489;28;20415;-61
2023/11/25 14:50:52;;;;;;;1.98;1.00;;;;;;;;;;10230287;28;20445;-61
2023/11/25 14:55:53;;;;;;;3.28;1.20;;;;;;;;;;10243798;28;20510;-61
2023/11/25 15:00:53;;;;;;;1.23;1.00;;;;;;;;;;10241501;28;20027;-61
2023/11/25 15:05:54;;;;;;;3.65;1.00;;;;;;;;;;10234541;28;20122;-60
2023/11/25 15:10:55;;;;;;;1.50;1.15;;;;;;;;;;10241934;28;20043;-61
2023/11/25 15:15:56;;;;;;;3.85;1.00;;;;;;;;;;10247332;28;20055;-61
2023/11/25 15:20:57;;;;;;;1.23;1.05;;;;;;;;;;10247194;28;20027;-61
2023/11/25 15:25:58;;;;;;;1.77;1.10;;;;;;;;;;10248084;28;20154;-61
2023/11/25 15:30:58;;;;;;;2.10;1.30;;;;;;;;;;10245697;28;20027;-61
2023/11/25 15:35:59;;;;;;;10.57;1.95;;;;;;;;;;10238771;28;20039;-62
2023/11/25 15:41:00;;;;;;;12.60;1.95;;;;;;;;;;10251281;28;20038;-62
2023/11/25 15:46:01;;;;;;;5.30;2.10;;;;;;;;;;10245130;29;20039;-61
2023/11/25 15:51:02;;;;;;;6.22;2.40;;;;;;;;;;10243760;28;20122;-59
2023/11/25 15:56:03;;;;;;;6.45;1.90;;;;;;;;;;10250524;29;20054;-60
2023/11/25 16:01:04;;;;;;;5.38;2.70;;;;;;;;;;10239842;28;20039;-61
2023/11/25 16:06:06;;;;;;;5.70;2.13;;;;;;;;;;10248756;28;20035;-63
2023/11/25 16:11:06;;;;;;;5.68;2.17;;;;;;;;;;10235510;28;20039;-61
2023/11/25 16:16:09;;;;;;;7.22;2.42;;;;;;;;;;10245520;28;20047;-62
2023/11/25 16:21:10;;;;;;;2.50;1.60;;;;;;;;;;10226126;28;20074;-55
2023/11/25 16:26:11;;;;;;;5.35;1.73;;;;;;;;;;10257392;28;20027;-60
2023/11/25 16:31:14;;;;;;;6.15;2.10;;;;;;;;;;10243978;28;20099;-61
2023/11/25 16:36:15;;;;;;;3.90;1.85;;;;;;;;;;10246740;28;20035;-61
2023/11/25 16:41:16;;;;;;;4.28;2.28;;;;;;;;;;10244760;28;20023;-60
2023/11/25 16:46:17;;;;;;;8.15;2.08;;;;;;;;;;10215294;28;20039;-61
2023/11/25 16:51:18;;;;;;;3.15;1.92;;;;;;;;;;10239706;28;20024;-60
2023/11/25 16:56:18;;;;;;;3.45;2.10;;;;;;;;;;10249477;28;20055;-59
2023/11/25 17:01:20;;;;;;;6.03;1.67;;;;;;;;;;10238838;28;20329;-60
2023/11/25 17:06:22;;;;;;;11.57;2.03;;;;;;;;;;10239302;28;20037;-61
2023/11/25 17:11:23;;;;;;;5.65;1.83;;;;;;;;;;10247609;28;20027;-60
2023/11/25 17:16:25;;;;;;;2.53;2.22;;;;;;;;;;10247929;28;20467;-60
2023/11/25 17:21:26;;;;;;;10.77;2.08;;;;;;;;;;10253214;28;20023;-64
2023/11/25 17:26:26;;;;;;;4.65;1.92;;;;;;;;;;10250718;28;20038;-62
2023/11/25 17:31:27;;;;;;;7.32;2.35;;;;;;;;;;10246629;28;20043;-64
2023/11/25 17:36:28;;;;;;;2.70;1.85;;;;;;;;;;10258425;28;20035;-64
2023/11/25 17:41:28;;;;;;;5.70;2.47;;;;;;;;;;10244128;28;20050;-63
2023/11/25 17:46:29;;;;;;;17.75;4.20;;;;;;;;;;10245045;28;20027;-64
2023/11/25 17:51:29;;;;;;;24.52;3.13;;;;;;;;;;10233717;28;20538;-67
2023/11/25 17:56:31;;;;;;;12.38;3.63;;;;;;;;;;10253065;28;20539;-67
2023/11/25 18:01:32;;;;;;;21.17;4.25;;;;;;;;;;10244837;28;20035;-54
2023/11/25 18:06:32;;;;;;;26.98;3.05;;;;;;;;;;10256486;28;20042;-64
2023/11/25 18:11:33;;;;;;;9.98;2.83;;;;;;;;;;10244882;28;20046;-64
2023/11/25 18:16:33;;;;;;;12.90;2.83;;;;;;;;;;10244428;28;20039;-64
2023/11/25 18:21:34;;;;;;;9.30;2.83;;;;;;;;;;10244929;28;20023;-64
2023/11/25 18:26:35;;;;;;;17.08;2.80;;;;;;;;;;10231758;28;20037;-58
2023/11/25 18:31:35;;;;;;;7.03;2.28;;;;;;;;;;10215382;28;20047;-64
2023/11/25 18:36:37;;;;;;;7.28;2.83;;;;;;;;;;10237979;29;20094;-60
2023/11/25 18:41:37;;;;;;;9.27;2.53;;;;;;;;;;10243974;28;20106;-62
2023/11/25 18:46:38;;;;;;;10.70;2.60;;;;;;;;;;10243932;28;20431;-61
2023/11/25 18:51:39;;;;;;;8.40;2.38;;;;;;;;;;10253304;28;20460;-64
2023/11/25 18:56:40;;;;;;;7.00;2.53;;;;;;;;;;10253005;28;20043;-61
2023/11/25 19:01:41;;;;;;;8.30;2.75;;;;;;;;;;10251711;28;20483;-61
2023/11/25 19:06:44;;;;;;;5.55;2.83;;;;;;;;;;10251880;28;20042;-61
2023/11/25 19:11:48;;;;;;;5.93;2.88;;;;;;;;;;10251951;28;20094;-62
2023/11/25 19:16:49;;;;;;;6.50;2.38;;;;;;;;;;10265348;28;20035;-64
2023/11/25 19:21:50;;;;;;;8.55;2.50;;;;;;;;;;10245698;28;20031;-63
2023/11/25 19:26:51;;;;;;;8.30;2.70;;;;;;;;;;10245805;28;20147;-63
2023/11/25 19:31:52;;;;;;;7.97;2.53;;;;;;;;;;10229535;28;20094;-60
2023/11/25 19:36:52;;;;;;;6.53;3.03;;;;;;;;;;10242613;29;20039;-64
2023/11/25 19:41:53;;;;;;;5.45;2.15;;;;;;;;;;10251983;28;20027;-63
2023/11/25 19:46:55;;;;;;;5.13;2.47;;;;;;;;;;10246845;28;20035;-63
2023/11/25 19:51:57;;;;;;;4.30;2.50;;;;;;;;;;10248800;28;20097;-63
2023/11/25 19:56:57;;;;;;;6.30;2.78;;;;;;;;;;10248006;29;20055;-64
2023/11/25 20:01:58;;;;;;;3.70;2.42;;;;;;;;;;10248036;28;20031;-63
2023/11/25 20:06:58;;;;;;;4.75;2.22;;;;;;;;;;10248913;28;20028;-64
2023/11/25 20:11:59;;;;;;;5.25;2.22;;;;;;;;;;10248895;28;20863;-63
2023/11/25 20:17:00;;;;;;;3.80;2.30;;;;;;;;;;10247818;28;20050;-64
2023/11/25 20:22:01;;;;;;;4.70;2.22;;;;;;;;;;10242540;28;20526;-62
2023/11/25 20:27:01;;;;;;;3.92;2.42;;;;;;;;;;10245412;28;20530;-63
2023/11/25 20:32:04;;;;;;;3.72;2.08;;;;;;;;;;10236967;28;20031;-64
2023/11/25 20:37:06;;;;;;;4.97;2.30;;;;;;;;;;10236186;28;20329;-61
2023/11/25 20:42:07;;;;;;;3.65;2.53;;;;;;;;;;10249052;28;20068;-61
2023/11/25 20:47:07;;;;;;;3.22;2.00;;;;;;;;;;10249209;28;20508;-62
2023/11/25 20:52:08;;;;;;;5.22;2.63;;;;;;;;;;10247879;28;20023;-62
2023/11/25 20:57:14;;;;;;;3.92;2.22;;;;;;;;;;10247355;28;20043;-63
2023/11/25 21:02:15;;;;;;;3.85;2.30;;;;;;;;;;10246038;28;20031;-62
2023/11/25 21:07:16;;;;;;;4.38;2.10;;;;;;;;;;10245654;29;20487;-58
2023/11/25 21:12:17;;;;;;;3.42;2.20;;;;;;;;;;10234629;28;20048;-63
2023/11/25 21:17:17;;;;;;;2.97;1.95;;;;;;;;;;10246315;28;20505;-63
2023/11/25 21:22:18;;;;;;;2.50;2.13;;;;;;;;;;10247304;28;20034;-62
2023/11/25 21:27:18;;;;;;;3.20;2.50;;;;;;;;;;10246894;28;20023;-63
2023/11/25 21:32:19;;;;;;;3.13;2.30;;;;;;;;;;10243771;28;20038;-62
2023/11/25 21:37:20;;;;;;;3.95;2.17;;;;;;;;;;10246336;29;20027;-64
2023/11/25 21:42:20;;;;;;;3.38;2.25;;;;;;;;;;10245244;28;20027;-61
2023/11/25 21:47:21;;;;;;;3.70;2.25;;;;;;;;;;10245947;29;20039;-63
2023/11/25 21:52:23;;;;;;;3.58;2.38;;;;;;;;;;10245401;28;20042;-63
2023/11/25 21:57:27;;;;;;;2.85;2.22;;;;;;;;;;10244926;28;20052;-64
2023/11/25 22:02:27;;;;;;;2.75;2.28;;;;;;;;;;10245532;29;20031;-62
2023/11/25 22:07:28;;;;;;;4.43;2.40;;;;;;;;;;10244387;29;20482;-57
2023/11/25 22:12:29;;;;;;;3.05;2.25;;;;;;;;;;10233415;28;20031;-64
2023/11/25 22:17:29;;;;;;;4.20;2.30;;;;;;;;;;10244888;28;20095;-63
2023/11/25 22:22:30;;;;;;;2.95;2.00;;;;;;;;;;10243871;28;20027;-64
2023/11/25 22:27:32;;;;;;;6.90;2.65;;;;;;;;;;10244822;28;20043;-62
2023/11/25 22:32:33;;;;;;;4.97;2.42;;;;;;;;;;10225188;28;20114;-61
2023/11/25 22:37:36;;;;;;;3.92;2.70;;;;;;;;;;10235827;29;20059;-64
2023/11/25 22:42:37;;;;;;;9.15;2.95;;;;;;;;;;10232808;28;20035;-63
2023/11/25 22:47:37;;;;;;;7.80;3.00;;;;;;;;;;10229226;29;20040;-63
2023/11/25 22:52:38;;;;;;;10.43;3.00;;;;;;;;;;10222533;29;20031;-64
2023/11/25 22:57:38;;;;;;;7.97;2.95;;;;;;;;;;10222641;29;20054;-64
2023/11/25 23:02:39;;;;;;;9.65;2.85;;;;;;;;;;10241377;28;20035;-63
2023/11/25 23:07:39;;;;;;;7.65;2.90;;;;;;;;;;10243662;28;20094;-64
2023/11/25 23:12:41;;;;;;;8.88;2.58;;;;;;;;;;10243975;28;20106;-61
2023/11/25 23:17:42;;;;;;;5.70;2.50;;;;;;;;;;10242517;28;20027;-63
2023/11/25 23:22:43;;;;;;;8.00;2.88;;;;;;;;;;10242169;28;20050;-62
2023/11/25 23:27:43;;;;;;;5.53;2.85;;;;;;;;;;10243552;28;20032;-64
2023/11/25 23:32:45;;;;;;;6.15;2.70;;;;;;;;;;10243758;28;20027;-62
2023/11/25 23:37:45;;;;;;;3.60;2.33;;;;;;;;;;10249815;28;20046;-62
2023/11/25 23:42:46;;;;;;;4.18;2.72;;;;;;;;;;10238336;28;20027;-60
2023/11/25 23:47:47;;;;;;;4.40;2.55;;;;;;;;;;10247531;28;20039;-63
2023/11/25 23:52:47;;;;;;;5.32;2.72;;;;;;;;;;10241508;28;20027;-63
2023/11/25 23:57:48;;;;;;;4.18;2.53;;;;;;;;;;10246339;28;20043;-60
